Time;durP1;ratioP1;P1;durP2;ratioP2;P2;SDS_P1;SDS_P2;PMS_P1;PMS_P2;Temp;Humidity;BMP_temperature;BMP_pressure;BME280_temperature;BME280_humidity;BME280_pressure;Samples;Min_cycle;Max_cycle;Signal;HPM_P1;HPM_P2
2022/09/27 00:00:42;;;;;;;0.40;0.30;;;;;;;12.64;100.00;98307.97;5060564;28;20461;-51
2022/09/27 00:03:10;;;;;;;0.43;0.30;;;;;;;12.46;100.00;98310.06;5055378;28;20519;-51
2022/09/27 00:05:36;;;;;;;0.30;0.20;;;;;;;12.79;100.00;98314.91;5057106;28;20455;-51
2022/09/27 00:08:03;;;;;;;0.40;0.30;;;;;;;12.64;100.00;98311.47;5062099;28;20919;-51
2022/09/27 00:10:30;;;;;;;0.40;0.30;;;;;;;12.64;100.00;98313.28;5060756;28;20958;-51
2022/09/27 00:12:57;;;;;;;0.40;0.20;;;;;;;12.50;100.00;98311.56;5055151;28;20994;-52
2022/09/27 00:15:24;;;;;;;0.40;0.30;;;;;;;12.54;100.00;98307.72;5056572;28;20450;-51
2022/09/27 00:17:51;;;;;;;0.30;0.20;;;;;;;12.56;100.00;98315.63;5061807;28;20877;-51
2022/09/27 00:20:19;;;;;;;2.20;0.50;;;;;;;12.58;100.00;98309.22;5059813;28;20962;-51
2022/09/27 00:22:47;;;;;;;0.53;0.40;;;;;;;12.63;100.00;98317.78;5055052;28;20457;-52
2022/09/27 00:25:14;;;;;;;0.40;0.30;;;;;;;12.74;100.00;98309.84;5055813;28;20479;-51
2022/09/27 00:27:41;;;;;;;0.60;0.57;;;;;;;12.67;100.00;98307.75;5062157;28;20501;-51
2022/09/27 00:30:08;;;;;;;0.40;0.30;;;;;;;12.63;100.00;98314.25;5061911;28;20453;-51
2022/09/27 00:32:35;;;;;;;0.30;0.20;;;;;;;12.44;100.00;98312.81;5061738;28;20494;-51
2022/09/27 00:35:01;;;;;;;0.40;0.30;;;;;;;12.35;100.00;98307.28;5061801;28;20519;-51
2022/09/27 00:37:28;;;;;;;0.37;0.27;;;;;;;12.39;100.00;98312.28;5055546;28;20454;-51
2022/09/27 00:39:54;;;;;;;0.50;0.40;;;;;;;12.36;100.00;98307.19;5055392;28;20927;-51
2022/09/27 00:42:20;;;;;;;0.30;0.20;;;;;;;12.41;100.00;98313.03;5046994;28;20480;-51
2022/09/27 00:45:00;;;;;;;0.40;0.30;;;;;;;12.31;100.00;98311.94;5066694;28;20532;-51
2022/09/27 00:47:49;;;;;;;0.63;0.50;;;;;;;12.82;100.00;98314.69;5045418;28;20942;-51
2022/09/27 00:50:34;;;;;;;0.40;0.30;;;;;;;12.62;100.00;98315.22;5051604;28;20789;-51
2022/09/27 00:53:15;;;;;;;0.40;0.30;;;;;;;12.69;100.00;98317.34;5066385;28;20497;-52
2022/09/27 00:55:47;;;;;;;10.60;0.40;;;;;;;12.92;100.00;98310.41;5059142;28;20874;-51
2022/09/27 00:58:17;;;;;;;0.30;0.20;;;;;;;12.74;100.00;98309.00;5062655;28;20481;-51
2022/09/27 01:00:49;;;;;;;0.50;0.30;;;;;;;12.59;100.00;98302.06;5060879;28;20453;-50
2022/09/27 01:03:25;;;;;;;1.93;0.40;;;;;;;12.54;100.00;98307.72;5058586;28;20462;-51
2022/09/27 01:05:52;;;;;;;0.40;0.30;;;;;;;12.49;100.00;98304.53;5070639;28;20509;-51
2022/09/27 01:08:18;;;;;;;0.37;0.30;;;;;;;12.55;100.00;98303.25;5059855;28;20511;-51
2022/09/27 01:11:02;;;;;;;10.10;0.80;;;;;;;12.54;100.00;98305.06;5057555;28;20837;-51
2022/09/27 01:13:52;;;;;;;0.40;0.30;;;;;;;12.44;100.00;98303.97;5062205;28;20467;-51
2022/09/27 01:16:45;;;;;;;13.63;0.70;;;;;;;12.55;100.00;98308.56;5058683;28;20504;-51
2022/09/27 01:19:33;;;;;;;0.70;0.60;;;;;;;12.59;100.00;98308.25;5055862;28;20454;-51
2022/09/27 01:22:16;;;;;;;0.47;0.37;;;;;;;12.63;100.00;98311.59;5058473;28;20443;-50
2022/09/27 01:25:27;;;;;;;0.50;0.30;;;;;;;12.63;100.00;98306.25;5049771;28;20496;-51
2022/09/27 01:28:18;;;;;;;0.60;0.60;;;;;;;12.44;100.00;98306.63;5063035;28;20943;-51
2022/09/27 01:31:05;;;;;;;0.50;0.50;;;;;;;12.63;100.00;98299.13;5064723;28;20467;-51
2022/09/27 01:33:50;;;;;;;9.03;0.93;;;;;;;12.62;100.00;98305.41;5064979;28;20549;-51
2022/09/27 01:36:26;;;;;;;2.40;0.53;;;;;;;12.46;100.00;98308.22;5058318;28;20523;-54
2022/09/27 01:39:22;;;;;;;0.40;0.40;;;;;;;12.65;100.00;98307.00;5064841;28;20486;-51
2022/09/27 01:42:25;;;;;;;0.50;0.30;;;;;;;12.67;100.00;98315.75;5064918;28;20451;-50
2022/09/27 01:44:59;;;;;;;0.87;0.70;;;;;;;12.59;100.00;98315.41;5064616;28;20470;-51
2022/09/27 01:47:36;;;;;;;0.50;0.50;;;;;;;12.50;100.00;98314.22;5060513;28;20445;-51
2022/09/27 01:50:12;;;;;;;0.40;0.30;;;;;;;12.50;100.00;98308.06;5057974;28;20858;-51
2022/09/27 01:52:46;;;;;;;1.07;0.50;;;;;;;12.52;100.00;98306.97;5071407;28;20547;-51
2022/09/27 01:55:16;;;;;;;0.47;0.33;;;;;;;12.41;100.00;98313.03;5057616;28;21031;-52
2022/09/27 01:57:48;;;;;;;0.50;0.50;;;;;;;12.24;100.00;98321.31;5070058;28;20450;-52
2022/09/27 02:00:15;;;;;;;0.37;0.30;;;;;;;12.62;100.00;98321.41;5059147;28;20449;-51
2022/09/27 02:02:49;;;;;;;0.50;0.30;;;;;;;12.70;100.00;98318.19;5057544;28;20943;-51
2022/09/27 02:05:18;;;;;;;0.40;0.30;;;;;;;12.43;100.00;98327.09;5071077;28;20500;-51
2022/09/27 02:07:52;;;;;;;2.10;0.50;;;;;;;12.29;100.00;98319.19;5057432;28;20454;-51
2022/09/27 02:10:23;;;;;;;0.40;0.40;;;;;;;12.09;100.00;98323.19;5061008;28;20924;-51
2022/09/27 02:13:04;;;;;;;7.73;0.73;;;;;;;12.44;100.00;98319.97;5063324;28;20494;-52
2022/09/27 02:15:47;;;;;;;2.23;1.47;;;;;;;12.32;100.00;98315.47;5064299;28;20446;-54
2022/09/27 02:18:27;;;;;;;0.47;0.37;;;;;;;12.34;100.00;98321.56;5049237;28;20474;-51
2022/09/27 02:20:59;;;;;;;0.40;0.30;;;;;;;12.49;100.00;98328.53;5057282;28;20961;-50
2022/09/27 02:23:32;;;;;;;9.50;1.63;;;;;;;12.24;100.00;98321.31;5059368;28;20517;-51
2022/09/27 02:26:37;;;;;;;0.40;0.30;;;;;;;12.28;100.00;98322.81;5063879;28;20855;-51
2022/09/27 02:29:07;;;;;;;0.60;0.40;;;;;;;12.26;100.00;98332.72;5063683;28;20949;-51
2022/09/27 02:31:33;;;;;;;1.23;0.60;;;;;;;12.21;100.00;98336.66;5063021;28;20484;-51
2022/09/27 02:34:05;;;;;;;0.60;0.40;;;;;;;12.25;100.00;98340.81;5057323;28;20474;-52
2022/09/27 02:36:31;;;;;;;0.40;0.30;;;;;;;12.34;100.00;98338.41;5057356;28;20447;-52
2022/09/27 02:38:59;;;;;;;0.50;0.50;;;;;;;12.00;100.00;98346.91;5043917;28;20462;-51
2022/09/27 02:41:25;;;;;;;0.40;0.30;;;;;;;12.10;100.00;98362.19;5057126;28;20966;-52
2022/09/27 02:44:00;;;;;;;0.40;0.30;;;;;;;12.15;100.00;98369.88;5064213;28;20498;-51
2022/09/27 02:47:04;;;;;;;1.43;0.50;;;;;;;12.19;100.00;98375.84;5063973;28;20456;-52
2022/09/27 02:49:48;;;;;;;0.40;0.30;;;;;;;11.90;100.00;98377.75;5059628;28;20443;-51
2022/09/27 02:52:56;;;;;;;2.63;0.77;;;;;;;12.13;100.00;98382.44;5048094;28;21200;-52
2022/09/27 02:55:45;;;;;;;0.40;0.30;;;;;;;11.92;100.00;98391.81;5023863;28;20535;-51
2022/09/27 02:58:18;;;;;;;0.40;0.30;;;;;;;12.09;100.00;98395.09;5063757;28;20960;-51
2022/09/27 03:01:01;;;;;;;0.57;0.50;;;;;;;11.90;100.00;98402.56;5062233;28;20839;-52
2022/09/27 03:03:38;;;;;;;0.60;0.50;;;;;;;11.87;100.00;98408.09;5062326;28;21094;-51
2022/09/27 03:06:09;;;;;;;0.37;0.30;;;;;;;11.98;100.00;98402.06;5071486;28;20451;-51
2022/09/27 03:08:37;;;;;;;0.43;0.33;;;;;;;11.93;100.00;98405.03;5065023;28;20602;-51
2022/09/27 03:11:04;;;;;;;1.07;0.63;;;;;;;11.86;100.00;98411.69;5056402;28;20449;-51
2022/09/27 03:13:31;;;;;;;0.30;0.20;;;;;;;11.99;100.00;98412.63;5058597;28;20922;-51
2022/09/27 03:15:57;;;;;;;0.67;0.67;;;;;;;11.82;100.00;98410.19;5063066;28;20480;-51
2022/09/27 03:18:27;;;;;;;0.40;0.30;;;;;;;11.85;100.00;98413.50;5061124;28;20898;-51
2022/09/27 03:20:54;;;;;;;0.30;0.30;;;;;;;12.07;100.00;98413.00;5055977;28;20450;-51
2022/09/27 03:23:20;;;;;;;0.53;0.40;;;;;;;11.82;100.00;98410.19;5058019;28;20466;-52
2022/09/27 03:25:47;;;;;;;0.50;0.40;;;;;;;11.79;100.00;98418.38;5062751;28;20467;-51
2022/09/27 03:28:14;;;;;;;0.50;0.30;;;;;;;11.70;100.00;98418.94;5061676;28;20822;-49
2022/09/27 03:30:43;;;;;;;0.47;0.33;;;;;;;11.62;100.00;98421.22;5055920;28;20453;-50
2022/09/27 03:33:10;;;;;;;0.30;0.20;;;;;;;11.53;100.00;98417.34;5057116;28;20995;-49
2022/09/27 03:35:36;;;;;;;0.67;0.40;;;;;;;11.49;100.00;98419.31;5063148;28;20534;-49
2022/09/27 03:38:04;;;;;;;0.30;0.20;;;;;;;11.59;100.00;98416.94;5061839;28;20457;-50
2022/09/27 03:40:30;;;;;;;0.50;0.43;;;;;;;11.57;100.00;98417.03;5055865;28;20507;-50
2022/09/27 03:42:57;;;;;;;0.60;0.37;;;;;;;11.60;100.00;98420.44;5057039;28;20451;-51
2022/09/27 03:45:23;;;;;;;0.30;0.20;;;;;;;11.57;100.00;98422.34;5062420;28;20451;-50
2022/09/27 03:47:50;;;;;;;2.50;0.53;;;;;;;11.63;100.00;98422.91;5061591;28;20971;-51
2022/09/27 03:50:16;;;;;;;0.30;0.20;;;;;;;11.83;100.00;98419.91;5049664;28;20474;-51
2022/09/27 03:52:43;;;;;;;0.50;0.30;;;;;;;11.64;100.00;98424.63;5061687;28;20970;-50
2022/09/27 03:55:11;;;;;;;9.20;0.30;;;;;;;11.65;100.00;98421.88;5055653;28;20495;-50
2022/09/27 03:57:37;;;;;;;3.00;0.30;;;;;;;11.81;100.00;98414.66;5068610;28;21028;-51
2022/09/27 04:00:05;;;;;;;0.37;0.30;;;;;;;11.76;100.00;98418.53;5042860;28;20460;-52
2022/09/27 04:02:31;;;;;;;0.30;0.20;;;;;;;11.62;100.00;98431.84;5055495;28;20858;-50
2022/09/27 04:04:58;;;;;;;0.80;0.50;;;;;;;11.64;100.00;98429.94;5068132;28;20473;-50
2022/09/27 04:07:24;;;;;;;0.40;0.20;;;;;;;11.54;100.00;98435.00;5055675;28;20450;-49
2022/09/27 04:09:51;;;;;;;2.33;0.50;;;;;;;11.57;100.00;98448.13;5062087;28;20507;-51
2022/09/27 04:12:17;;;;;;;0.30;0.20;;;;;;;11.69;100.00;98447.34;5062121;28;20481;-51
2022/09/27 04:14:43;;;;;;;0.40;0.30;;;;;;;11.60;100.00;98437.28;5055844;28;20894;-51
2022/09/27 04:17:10;;;;;;;0.30;0.20;;;;;;;11.59;100.00;98446.22;5055284;28;20462;-51
2022/09/27 04:19:36;;;;;;;0.30;0.20;;;;;;;11.58;100.00;98445.34;5061639;28;20955;-52
2022/09/27 04:22:03;;;;;;;0.67;0.40;;;;;;;11.80;100.00;98441.38;5062138;28;20503;-51
2022/09/27 04:24:30;;;;;;;0.40;0.30;;;;;;;11.60;100.00;98445.25;5054955;28;20519;-52
2022/09/27 04:26:57;;;;;;;0.40;0.30;;;;;;;11.58;100.00;98448.00;5055023;28;20470;-52
2022/09/27 04:29:24;;;;;;;0.30;0.20;;;;;;;11.51;100.00;98449.38;5061343;28;20508;-53
2022/09/27 04:31:51;;;;;;;3.30;0.50;;;;;;;11.53;100.00;98452.78;5061904;28;20757;-52
2022/09/27 04:34:17;;;;;;;0.30;0.30;;;;;;;11.61;100.00;98448.78;5055983;28;20906;-53
2022/09/27 04:36:43;;;;;;;2.40;0.60;;;;;;;11.45;100.00;98452.38;5056656;28;20450;-52
2022/09/27 04:39:10;;;;;;;0.30;0.20;;;;;;;11.61;100.00;98451.44;5065614;28;20516;-51
2022/09/27 04:41:37;;;;;;;0.50;0.30;;;;;;;11.52;100.00;98448.41;5066213;28;20457;-52
2022/09/27 04:44:03;;;;;;;0.40;0.30;;;;;;;11.22;100.00;98455.59;5060676;28;20487;-52
2022/09/27 04:46:30;;;;;;;0.40;0.30;;;;;;;11.64;100.00;98454.75;5058808;28;20454;-51
2022/09/27 04:49:00;;;;;;;0.50;0.30;;;;;;;11.53;100.00;98451.94;5064318;28;20457;-52
2022/09/27 04:51:27;;;;;;;0.30;0.20;;;;;;;11.46;100.00;98447.91;5068257;28;20450;-52
2022/09/27 04:53:56;;;;;;;0.40;0.30;;;;;;;11.59;100.00;98459.50;5063305;28;20502;-51
2022/09/27 04:56:22;;;;;;;0.30;0.20;;;;;;;11.66;100.00;98458.19;5068185;28;20485;-52
2022/09/27 04:58:49;;;;;;;0.40;0.30;;;;;;;11.54;100.00;98453.63;5063279;28;20500;-52
2022/09/27 05:01:15;;;;;;;0.50;0.30;;;;;;;11.52;100.00;98455.53;5065486;28;20893;-51
2022/09/27 05:03:42;;;;;;;0.33;0.23;;;;;;;11.55;100.00;98461.50;5062151;28;20556;-52
2022/09/27 05:06:09;;;;;;;0.40;0.27;;;;;;;11.53;100.00;98462.56;5058665;28;20897;-53
2022/09/27 05:08:35;;;;;;;0.40;0.30;;;;;;;11.33;100.00;98457.59;5062863;28;20512;-52
2022/09/27 05:11:02;;;;;;;0.47;0.30;;;;;;;11.37;100.00;98462.63;5065472;28;20455;-52
2022/09/27 05:13:28;;;;;;;0.63;0.30;;;;;;;11.55;100.00;98471.31;5061904;28;20489;-52
2022/09/27 05:16:01;;;;;;;0.57;0.40;;;;;;;11.35;100.00;98475.16;5055416;28;20454;-51
2022/09/27 05:18:28;;;;;;;0.30;0.20;;;;;;;11.53;100.00;98483.84;5063012;28;20877;-51
2022/09/27 05:20:57;;;;;;;0.60;0.60;;;;;;;11.31;100.00;98484.28;5058431;28;20449;-54
2022/09/27 05:23:24;;;;;;;0.40;0.40;;;;;;;11.37;100.00;98481.25;5059256;28;20478;-52
2022/09/27 05:25:55;;;;;;;0.40;0.30;;;;;;;11.43;100.00;98480.91;5065182;28;20454;-52
2022/09/27 05:28:23;;;;;;;0.40;0.20;;;;;;;11.39;100.00;98484.69;5063803;28;20457;-53
2022/09/27 05:30:49;;;;;;;0.57;0.47;;;;;;;11.28;100.00;98479.16;5058217;28;20461;-52
2022/09/27 05:33:16;;;;;;;0.63;0.53;;;;;;;11.15;100.00;98478.19;5059304;28;20494;-52
2022/09/27 05:35:50;;;;;;;0.50;0.50;;;;;;;11.14;100.00;98490.63;5065150;28;20458;-52
2022/09/27 05:38:17;;;;;;;0.40;0.30;;;;;;;11.18;100.00;98488.63;5065011;28;20449;-52
2022/09/27 05:40:46;;;;;;;5.60;1.37;;;;;;;11.35;100.00;98491.13;5058943;28;20450;-52
2022/09/27 05:43:13;;;;;;;0.63;0.40;;;;;;;11.36;100.00;98489.31;5057236;28;20471;-52
2022/09/27 05:45:39;;;;;;;1.37;0.77;;;;;;;11.50;100.00;98499.97;5064145;28;20450;-53
2022/09/27 05:48:06;;;;;;;1.37;0.50;;;;;;;11.44;100.00;98495.91;5064890;28;20467;-52
2022/09/27 05:50:32;;;;;;;0.60;0.57;;;;;;;11.34;100.00;98502.72;5059624;28;20833;-53
2022/09/27 05:52:58;;;;;;;0.87;0.80;;;;;;;11.40;100.00;98507.69;5070047;28;20914;-52
2022/09/27 05:55:25;;;;;;;0.50;0.40;;;;;;;11.55;100.00;98511.22;5059218;28;20461;-53
2022/09/27 05:58:06;;;;;;;1.03;0.60;;;;;;;11.35;100.00;98528.38;5069150;28;20519;-52
2022/09/27 06:00:33;;;;;;;0.40;0.30;;;;;;;11.53;100.00;98523.78;5061636;28;21049;-52
2022/09/27 06:03:02;;;;;;;0.60;0.60;;;;;;;11.54;100.00;98528.13;5057864;28;21127;-52
2022/09/27 06:05:34;;;;;;;0.40;0.30;;;;;;;11.62;100.00;98531.16;5071397;28;20457;-52
2022/09/27 06:08:05;;;;;;;0.30;0.20;;;;;;;11.60;100.00;98534.88;5057844;28;20511;-53
2022/09/27 06:10:32;;;;;;;0.40;0.30;;;;;;;11.70;100.00;98541.34;5058922;28;20480;-52
2022/09/27 06:13:04;;;;;;;0.50;0.30;;;;;;;11.53;100.00;98545.06;5064628;28;20536;-52
2022/09/27 06:15:32;;;;;;;0.30;0.20;;;;;;;11.56;100.00;98545.72;5064197;28;20506;-52
2022/09/27 06:18:04;;;;;;;0.40;0.20;;;;;;;11.42;100.00;98561.66;5058310;28;20458;-52
2022/09/27 06:20:33;;;;;;;0.80;0.60;;;;;;;11.46;100.00;98557.84;5057605;28;20450;-53
2022/09/27 06:23:07;;;;;;;2.03;0.40;;;;;;;11.50;100.00;98562.03;5062814;28;20451;-52
2022/09/27 06:25:35;;;;;;;0.40;0.30;;;;;;;11.42;100.00;98566.13;5064249;28;20963;-53
2022/09/27 06:28:02;;;;;;;2.77;1.13;;;;;;;11.37;100.00;98562.84;5060867;28;20457;-52
2022/09/27 06:30:29;;;;;;;0.40;0.30;;;;;;;11.37;100.00;98571.69;5057157;28;20450;-52
2022/09/27 06:32:57;;;;;;;0.40;0.30;;;;;;;11.33;100.00;98564.84;5060479;28;20506;-53
2022/09/27 06:35:24;;;;;;;0.40;0.30;;;;;;;11.38;99.43;98570.78;5064163;28;20459;-52
2022/09/27 06:37:51;;;;;;;0.30;0.20;;;;;;;11.29;100.00;98576.63;5061101;28;20528;-53
2022/09/27 06:40:18;;;;;;;0.40;0.40;;;;;;;11.16;100.00;98578.31;5057037;28;20872;-54
2022/09/27 06:42:46;;;;;;;1.47;0.30;;;;;;;11.20;99.68;98572.69;5060044;28;20462;-52
2022/09/27 06:45:12;;;;;;;0.40;0.30;;;;;;;11.19;100.00;98578.97;5063593;28;21086;-53
2022/09/27 06:47:39;;;;;;;0.30;0.20;;;;;;;11.21;99.93;98578.88;5061296;28;21402;-52
2022/09/27 06:50:06;;;;;;;0.43;0.40;;;;;;;11.30;98.98;98598.78;5057160;28;20506;-54
2022/09/27 06:52:33;;;;;;;0.30;0.20;;;;;;;11.36;98.81;98607.22;5059757;28;20918;-52
2022/09/27 06:55:00;;;;;;;0.40;0.30;;;;;;;11.43;99.11;98603.28;5063479;28;20941;-52
2022/09/27 07:00:25;;;;;;;0.57;0.40;;;;;;;11.56;98.20;98609.59;5057321;28;20923;-52
2022/09/27 07:02:53;;;;;;;0.67;0.53;;;;;;;11.70;98.33;98613.22;5056952;28;20438;-53
2022/09/27 07:05:20;;;;;;;0.30;0.20;;;;;;;11.74;97.85;98615.59;5060922;28;20463;-53
2022/09/27 07:07:47;;;;;;;0.40;0.40;;;;;;;11.62;98.32;98616.34;5063515;28;20521;-54
2022/09/27 07:10:17;;;;;;;2.10;0.60;;;;;;;11.78;97.66;98626.91;5059821;28;20526;-53
2022/09/27 07:12:47;;;;;;;0.60;0.50;;;;;;;11.78;97.65;98626.91;5056572;28;20469;-52
2022/09/27 07:15:14;;;;;;;0.30;0.30;;;;;;;11.82;97.84;98629.34;5058976;28;20453;-54
2022/09/27 07:17:41;;;;;;;0.37;0.27;;;;;;;12.06;98.30;98635.00;5063546;28;20447;-51
2022/09/27 07:20:08;;;;;;;0.50;0.50;;;;;;;11.78;98.01;98630.44;5061120;28;20453;-50
2022/09/27 07:22:40;;;;;;;0.40;0.20;;;;;;;11.92;97.64;98629.63;5056293;28;20527;-53
2022/09/27 07:25:07;;;;;;;0.60;0.50;;;;;;;11.71;97.52;98625.56;5057671;28;20943;-52
2022/09/27 07:27:34;;;;;;;0.30;0.20;;;;;;;11.86;97.58;98627.34;5063817;28;21264;-52
2022/09/27 07:30:06;;;;;;;0.40;0.20;;;;;;;12.03;97.46;98639.63;5063464;28;20502;-53
2022/09/27 07:32:34;;;;;;;0.30;0.20;;;;;;;11.86;96.97;98641.50;5044253;28;20964;-52
2022/09/27 07:35:01;;;;;;;0.30;0.20;;;;;;;11.81;96.93;98638.28;5061855;28;21141;-52
2022/09/27 07:37:27;;;;;;;0.30;0.20;;;;;;;11.94;96.85;98635.75;5056873;28;20454;-52
2022/09/27 07:39:54;;;;;;;0.30;0.30;;;;;;;11.95;95.99;98658.75;5056123;28;20450;-54
2022/09/27 07:42:20;;;;;;;0.30;0.20;;;;;;;12.22;96.23;98644.69;5062080;28;20454;-52
2022/09/27 07:44:46;;;;;;;0.40;0.30;;;;;;;12.38;96.54;98642.78;5062757;28;20469;-51
2022/09/27 07:47:13;;;;;;;0.30;0.30;;;;;;;12.55;94.22;98645.25;5056672;28;20458;-51
2022/09/27 07:49:39;;;;;;;0.37;0.27;;;;;;;12.96;93.54;98637.28;5054976;28;20462;-56
2022/09/27 07:52:06;;;;;;;4.43;0.40;;;;;;;12.88;93.29;98644.03;5057916;28;20450;-53
2022/09/27 07:54:32;;;;;;;0.40;0.20;;;;;;;13.07;92.68;98643.72;5057291;28;20500;-54
2022/09/27 07:56:59;;;;;;;0.30;0.20;;;;;;;12.83;92.82;98641.69;5069182;28;20449;-53
2022/09/27 07:59:25;;;;;;;0.50;0.40;;;;;;;13.13;91.33;98646.84;5055631;28;20460;-54
2022/09/27 08:01:52;;;;;;;0.37;0.30;;;;;;;13.08;91.41;98651.63;5061357;28;20880;-54
2022/09/27 08:04:18;;;;;;;0.60;0.30;;;;;;;12.92;91.23;98648.25;5062348;28;20470;-54
2022/09/27 08:06:45;;;;;;;0.40;0.20;;;;;;;13.17;91.48;98655.53;5056777;28;20428;-54
2022/09/27 08:09:11;;;;;;;0.30;0.20;;;;;;;13.15;91.14;98644.06;5055737;28;20455;-54
2022/09/27 08:11:38;;;;;;;0.40;0.30;;;;;;;13.18;90.56;98659.91;5060749;28;20500;-55
2022/09/27 08:14:04;;;;;;;0.30;0.20;;;;;;;13.25;90.39;98659.41;5062298;28;20497;-55
2022/09/27 08:16:34;;;;;;;0.40;0.30;;;;;;;13.53;89.60;98660.25;5056776;28;20454;-54
2022/09/27 08:19:01;;;;;;;0.40;0.30;;;;;;;13.66;88.35;98657.63;5055358;28;20835;-55
2022/09/27 08:21:29;;;;;;;0.40;0.30;;;;;;;13.61;88.77;98661.47;5060073;28;20458;-54
2022/09/27 08:23:56;;;;;;;0.40;0.30;;;;;;;13.68;88.78;98667.22;5062518;28;20849;-55
2022/09/27 08:26:22;;;;;;;0.40;0.30;;;;;;;13.58;88.84;98669.69;5057855;28;20449;-53
2022/09/27 08:28:49;;;;;;;0.40;0.30;;;;;;;13.55;88.64;98669.84;5055321;28;21270;-56
2022/09/27 08:31:15;;;;;;;0.30;0.20;;;;;;;13.77;87.89;98676.44;5059703;28;20505;-55
2022/09/27 08:33:42;;;;;;;0.50;0.30;;;;;;;13.79;87.69;98672.69;5061823;28;20497;-53
2022/09/27 08:36:12;;;;;;;0.50;0.30;;;;;;;13.95;87.57;98677.84;5056088;28;20458;-52
2022/09/27 08:38:38;;;;;;;0.50;0.30;;;;;;;13.93;86.81;98674.44;5062035;28;20455;-53
2022/09/27 08:41:12;;;;;;;0.40;0.30;;;;;;;13.85;87.05;98674.13;5058538;28;20457;-53
2022/09/27 08:44:01;;;;;;;0.50;0.30;;;;;;;13.96;87.11;98679.56;5055621;28;20596;-53
2022/09/27 08:46:30;;;;;;;0.30;0.20;;;;;;;13.63;88.33;98680.91;5055346;28;20495;-54
2022/09/27 08:49:31;;;;;;;0.40;0.30;;;;;;;13.61;88.28;98689.97;5061026;28;20454;-53
2022/09/27 08:51:59;;;;;;;0.40;0.30;;;;;;;13.46;88.60;98688.31;5068067;28;20453;-53
2022/09/27 08:54:30;;;;;;;0.30;0.20;;;;;;;13.47;88.39;98682.88;5055699;28;20548;-54
2022/09/27 08:57:09;;;;;;;0.40;0.30;;;;;;;13.50;87.82;98687.16;5043379;28;20874;-50
2022/09/27 08:59:41;;;;;;;6.67;0.93;;;;;;;13.63;87.01;98686.22;5055230;28;20511;-50
2022/09/27 09:02:17;;;;;;;0.40;0.30;;;;;;;13.46;86.59;98686.50;5058561;28;20501;-50
2022/09/27 09:04:47;;;;;;;0.60;0.30;;;;;;;13.49;87.41;98680.97;5053191;28;20465;-48
2022/09/27 09:07:40;;;;;;;0.60;0.40;;;;;;;13.55;87.57;98680.53;5056616;28;20458;-49
2022/09/27 09:12:45;;;;;;;0.30;0.20;;;;;;;13.68;86.53;98690.41;5046834;28;20450;-49
2022/09/27 09:13:30;;;;;;;0.37;0.23;;;;;;;13.48;87.77;98700.59;5041883;28;20542;-49
2022/09/27 09:15:57;;;;;;;1.57;0.67;;;;;;;13.60;86.59;98699.78;5054822;28;20446;-49
2022/09/27 09:18:45;;;;;;;0.73;0.20;;;;;;;13.61;86.26;98709.50;5058485;28;20454;-50
2022/09/27 09:21:36;;;;;;;0.30;0.20;;;;;;;13.69;86.54;98700.97;5061839;28;20561;-49
2022/09/27 09:24:28;;;;;;;0.37;0.30;;;;;;;13.67;86.64;98702.03;5065096;28;20519;-51
2022/09/27 09:27:21;;;;;;;0.40;0.27;;;;;;;13.83;86.13;98689.38;5036946;28;20480;-53
2022/09/27 09:30:05;;;;;;;0.30;0.20;;;;;;;13.77;84.60;98700.47;5062771;28;20993;-49
2022/09/27 09:32:50;;;;;;;0.37;0.20;;;;;;;13.73;83.36;98705.19;5058750;28;20442;-49
2022/09/27 09:35:22;;;;;;;0.30;0.20;;;;;;;13.79;84.21;98702.09;5062527;28;20496;-49
2022/09/27 09:37:54;;;;;;;0.30;0.20;;;;;;;13.70;83.68;98701.84;5061998;28;20495;-53
2022/09/27 09:41:22;;;;;;;0.40;0.33;;;;;;;13.68;84.28;98696.59;5058295;28;20453;-50
2022/09/27 09:43:51;;;;;;;0.40;0.30;;;;;;;14.00;84.54;98690.91;5035559;28;20479;-51
2022/09/27 09:46:34;;;;;;;0.70;0.70;;;;;;;14.03;83.99;98691.56;5042169;28;20458;-51
2022/09/27 09:49:06;;;;;;;0.40;0.30;;;;;;;14.09;84.44;98692.94;5042860;28;20446;-50
2022/09/27 09:51:43;;;;;;;0.40;0.30;;;;;;;13.98;83.36;98690.13;5064544;28;20789;-50
2022/09/27 09:54:45;;;;;;;0.40;0.30;;;;;;;13.96;83.79;98684.91;5049011;28;20517;-53
2022/09/27 09:57:26;;;;;;;0.40;0.30;;;;;;;13.64;84.27;98695.94;4999757;28;20894;-51
2022/09/27 09:59:58;;;;;;;0.40;0.30;;;;;;;13.68;84.72;98693.94;5065045;28;20607;-50
2022/09/27 10:02:32;;;;;;;0.43;0.43;;;;;;;13.97;84.05;98694.63;5064459;28;20450;-51
2022/09/27 10:04:59;;;;;;;0.40;0.30;;;;;;;14.09;83.12;98690.25;5071107;28;20466;-51
2022/09/27 10:07:35;;;;;;;0.90;0.33;;;;;;;13.93;83.19;98690.47;5057435;28;20508;-52
2022/09/27 10:10:05;;;;;;;13.37;0.70;;;;;;;13.87;83.74;98688.22;5063290;28;20450;-50
2022/09/27 10:12:31;;;;;;;0.40;0.30;;;;;;;13.84;83.50;98691.97;5064722;28;20522;-52
2022/09/27 10:15:01;;;;;;;0.50;0.40;;;;;;;14.09;82.13;98685.78;5059763;28;20497;-51
2022/09/27 10:17:35;;;;;;;0.40;0.33;;;;;;;14.13;82.24;98675.75;5059644;28;21026;-52
2022/09/27 10:20:05;;;;;;;0.40;0.30;;;;;;;13.98;82.65;98680.34;5061738;28;20541;-51
2022/09/27 10:22:38;;;;;;;0.73;0.73;;;;;;;14.16;81.70;98675.53;5064610;28;20500;-49
2022/09/27 10:25:07;;;;;;;0.50;0.40;;;;;;;14.14;82.17;98682.81;5063147;28;20921;-51
2022/09/27 10:27:45;;;;;;;0.57;0.53;;;;;;;13.93;82.47;98683.31;5057793;28;20454;-51
2022/09/27 10:30:32;;;;;;;0.40;0.30;;;;;;;14.13;82.71;98673.94;5057417;28;20935;-53
2022/09/27 10:33:03;;;;;;;0.40;0.40;;;;;;;14.08;82.14;98676.06;5061177;28;20447;-51
2022/09/27 10:35:40;;;;;;;0.40;0.37;;;;;;;14.32;83.75;98669.97;5063564;28;20494;-51
2022/09/27 10:38:26;;;;;;;0.40;0.30;;;;;;;14.88;81.44;98674.00;5039635;28;20447;-51
2022/09/27 10:40:54;;;;;;;0.50;0.30;;;;;;;14.94;81.27;98668.22;5046442;28;20984;-54
2022/09/27 10:43:28;;;;;;;0.40;0.30;;;;;;;14.99;80.62;98668.72;5057593;28;20502;-54
2022/09/27 10:45:59;;;;;;;0.70;0.40;;;;;;;14.84;80.03;98664.50;5061707;28;20443;-52
2022/09/27 10:48:25;;;;;;;2.40;0.47;;;;;;;14.87;79.08;98663.41;5063957;28;20898;-50
2022/09/27 10:50:58;;;;;;;0.53;0.30;;;;;;;15.20;79.19;98654.72;5061308;28;20519;-52
2022/09/27 10:53:26;;;;;;;0.80;0.57;;;;;;;15.05;78.48;98657.56;5065161;28;20464;-51
2022/09/27 10:55:53;;;;;;;1.10;1.00;;;;;;;14.82;79.28;98648.56;5062729;28;20493;-50
2022/09/27 10:58:30;;;;;;;0.40;0.30;;;;;;;14.78;78.58;98652.41;5059051;28;20452;-51
2022/09/27 11:01:03;;;;;;;0.50;0.30;;;;;;;14.98;78.34;98644.75;5057669;28;20499;-51
2022/09/27 11:03:34;;;;;;;3.63;0.63;;;;;;;14.95;78.03;98648.53;5058713;28;20470;-52
2022/09/27 11:06:19;;;;;;;0.60;0.40;;;;;;;15.25;78.19;98644.56;5068115;28;20454;-53
2022/09/27 11:08:47;;;;;;;0.53;0.40;;;;;;;15.07;77.38;98642.25;5062134;28;20928;-51
2022/09/27 11:11:15;;;;;;;0.50;0.40;;;;;;;15.15;77.38;98646.19;5057148;28;20458;-54
2022/09/27 11:13:57;;;;;;;0.60;0.60;;;;;;;14.98;78.13;98637.59;5057873;28;20475;-50
2022/09/27 11:16:29;;;;;;;0.50;0.40;;;;;;;15.25;77.62;98634.72;5045502;28;20446;-51
2022/09/27 11:19:20;;;;;;;0.50;0.40;;;;;;;15.07;77.51;98636.03;5056969;28;20451;-51
2022/09/27 11:22:05;;;;;;;0.60;0.40;;;;;;;14.96;76.78;98631.50;5058152;28;20869;-51
2022/09/27 11:24:59;;;;;;;2.30;0.93;;;;;;;15.08;75.23;98638.63;5044641;28;21044;-51
2022/09/27 11:27:26;;;;;;;0.50;0.40;;;;;;;15.28;75.69;98631.78;5055256;28;20705;-52
2022/09/27 11:29:58;;;;;;;0.87;0.30;;;;;;;15.35;75.16;98635.75;5058388;28;20450;-51
2022/09/27 11:32:31;;;;;;;0.50;0.30;;;;;;;15.02;75.97;98635.53;5062838;28;20451;-53
2022/09/27 11:35:32;;;;;;;1.07;0.97;;;;;;;14.91;77.49;98630.97;5055817;28;21019;-54
2022/09/27 11:38:20;;;;;;;0.40;0.30;;;;;;;14.89;80.05;98632.06;5051727;28;21312;-50
2022/09/27 11:41:21;;;;;;;1.43;0.50;;;;;;;14.96;81.42;98633.31;5059210;28;21035;-51
2022/09/27 11:43:57;;;;;;;2.20;0.60;;;;;;;14.60;78.91;98634.16;5062790;28;20471;-51
2022/09/27 11:46:34;;;;;;;1.90;0.60;;;;;;;14.67;78.98;98630.09;5062743;28;20449;-53
2022/09/27 11:49:35;;;;;;;0.80;0.47;;;;;;;14.68;78.01;98613.06;5058476;28;20499;-54
2022/09/27 11:52:31;;;;;;;0.67;0.50;;;;;;;14.86;78.30;98611.72;5043381;28;20795;-52
2022/09/27 11:55:20;;;;;;;0.40;0.30;;;;;;;14.84;78.78;98608.31;5055737;28;20494;-51
2022/09/27 11:58:04;;;;;;;0.50;0.30;;;;;;;14.70;78.97;98608.47;5067598;28;20465;-51